createdAt,value
2019-02-27T00:02:11.932Z,14.47
2019-02-27T00:04:39.329Z,14.37
2019-02-27T00:07:06.680Z,15.40
2019-02-27T00:09:34.095Z,15.93
2019-02-27T00:12:02.351Z,15.27
2019-02-27T00:17:57.957Z,15.80
2019-02-27T00:20:25.528Z,15.10
2019-02-27T00:22:53.009Z,16.10
2019-02-27T00:25:20.529Z,15.10
2019-02-27T00:27:49.167Z,15.47
2019-02-27T00:30:17.449Z,14.40
2019-02-27T00:32:44.972Z,15.33
2019-02-27T00:35:12.489Z,16.43
2019-02-27T00:37:39.969Z,15.63
2019-02-27T00:40:07.569Z,15.57
2019-02-27T00:42:34.890Z,15.30
2019-02-27T00:51:11.972Z,15.70
2019-02-27T00:58:03.494Z,15.07
2019-02-27T01:00:30.835Z,14.87
2019-02-27T01:19:09.126Z,14.93
2019-02-27T01:22:25.428Z,14.80
2019-02-27T01:37:03.267Z,14.07
2019-02-27T01:47:24.989Z,15.27
2019-02-27T01:56:59.894Z,15.00
2019-02-27T02:03:30.239Z,14.83
2019-02-27T02:06:34.314Z,14.90
2019-02-27T02:10:02.749Z,15.90
2019-02-27T02:13:38.574Z,15.83
2019-02-27T02:20:16.083Z,16.17
2019-02-27T02:22:58.199Z,16.17
2019-02-27T02:26:10.477Z,16.97
2019-02-27T02:29:10.559Z,16.13
2019-02-27T02:31:49.159Z,15.80
2019-02-27T02:35:14.832Z,16.00
2019-02-27T02:38:24.521Z,14.93
2019-02-27T02:41:19.014Z,15.10
2019-02-27T02:44:23.480Z,16.10
2019-02-27T02:47:44.710Z,14.17
2019-02-27T02:51:04.189Z,15.50
2019-02-27T02:54:24.637Z,14.47
2019-02-27T02:57:35.891Z,13.33
2019-02-27T03:00:21.457Z,15.17
2019-02-27T03:03:22.659Z,14.90
2019-02-27T03:06:17.590Z,15.30
2019-02-27T03:09:10.916Z,16.03
2019-02-27T03:12:10.746Z,15.73
2019-02-27T03:15:07.774Z,15.33
2019-02-27T03:18:01.049Z,15.63
2019-02-27T03:21:02.724Z,15.67
2019-02-27T03:24:11.126Z,16.67
2019-02-27T03:27:09.666Z,14.83
2019-02-27T03:30:05.331Z,14.63
2019-02-27T03:33:06.457Z,15.27
2019-02-27T03:36:03.448Z,15.60
2019-02-27T03:39:06.071Z,14.40
2019-02-27T03:41:58.413Z,13.47
2019-02-27T03:44:56.202Z,15.20
2019-02-27T03:47:56.944Z,14.87
2019-02-27T03:51:03.123Z,15.37
2019-02-27T03:54:03.505Z,15.03
2019-02-27T03:57:18.936Z,14.17
2019-02-27T04:00:04.882Z,14.60
2019-02-27T04:03:25.882Z,15.07
2019-02-27T04:06:20.159Z,14.37
2019-02-27T04:09:00.055Z,17.07
2019-02-27T04:11:27.962Z,16.10
2019-02-27T04:14:03.346Z,16.67
2019-02-27T04:16:29.410Z,15.60
2019-02-27T04:18:56.146Z,14.97
2019-02-27T04:21:26.102Z,15.47
2019-02-27T04:23:53.875Z,16.23
2019-02-27T04:26:21.235Z,14.90
2019-02-27T04:28:48.599Z,15.17
2019-02-27T04:31:15.954Z,15.83
2019-02-27T04:33:43.340Z,16.10
2019-02-27T04:36:12.826Z,16.00
2019-02-27T04:38:39.978Z,14.60
2019-02-27T04:41:07.309Z,15.80
2019-02-27T04:43:34.664Z,15.03
2019-02-27T04:46:01.985Z,15.67
2019-02-27T04:48:29.904Z,15.07
2019-02-27T04:50:57.987Z,15.20
2019-02-27T04:53:25.344Z,15.77
2019-02-27T04:55:52.668Z,15.33
2019-02-27T04:58:19.978Z,15.43
2019-02-27T05:00:47.354Z,19.37
2019-02-27T05:03:14.737Z,16.20
2019-02-27T05:05:42.124Z,15.57
2019-02-27T05:08:09.407Z,15.10
2019-02-27T05:10:38.214Z,15.23
2019-02-27T05:13:06.023Z,15.63
2019-02-27T05:15:33.399Z,15.10
2019-02-27T05:18:00.738Z,15.60
2019-02-27T05:20:28.103Z,16.83
2019-02-27T05:23:00.171Z,16.07
2019-02-27T05:25:24.979Z,15.47
2019-02-27T05:27:52.284Z,17.00
2019-02-27T05:30:19.679Z,16.33
2019-02-27T05:32:47.029Z,14.83
2019-02-27T05:35:14.466Z,14.90
2019-02-27T05:37:41.819Z,14.87
2019-02-27T05:40:09.771Z,14.50
2019-02-27T05:42:39.103Z,14.93
2019-02-27T05:45:09.895Z,15.53
2019-02-27T05:47:37.216Z,14.93
2019-02-27T05:50:05.755Z,15.67
2019-02-27T05:52:33.209Z,15.13
2019-02-27T05:55:00.586Z,16.60
2019-02-27T05:57:27.921Z,15.73
2019-02-27T05:59:55.364Z,15.10
2019-02-27T06:02:22.699Z,15.00
2019-02-27T06:04:50.060Z,16.27
2019-02-27T06:07:19.037Z,14.57
2019-02-27T06:09:48.932Z,14.93
2019-02-27T06:12:15.934Z,15.80
2019-02-27T06:14:43.294Z,16.67
2019-02-27T06:17:12.861Z,15.97
2019-02-27T06:19:40.291Z,16.67
2019-02-27T06:22:07.630Z,14.57
2019-02-27T06:24:34.999Z,14.13
2019-02-27T06:27:06.060Z,15.47
2019-02-27T06:29:31.624Z,15.13
2019-02-27T06:31:59.414Z,15.27
2019-02-27T06:34:26.767Z,15.27
2019-02-27T06:36:54.138Z,16.27
2019-02-27T06:39:21.484Z,16.07
2019-02-27T06:41:49.786Z,14.27
2019-02-27T06:44:19.119Z,15.13
2019-02-27T06:46:46.634Z,15.03
2019-02-27T06:49:17.260Z,15.43
2019-02-27T06:51:43.225Z,15.97
2019-02-27T06:54:10.580Z,13.97
2019-02-27T06:56:40.769Z,15.43
2019-02-27T06:59:08.082Z,14.97
2019-02-27T07:01:35.468Z,14.10
2019-02-27T07:04:04.819Z,12.90
2019-02-27T07:06:32.060Z,14.60
2019-02-27T07:08:59.865Z,14.60
2019-02-27T07:11:27.234Z,15.47
2019-02-27T07:13:54.586Z,15.13
2019-02-27T07:16:22.911Z,13.40
2019-02-27T07:18:51.059Z,15.07
2019-02-27T07:21:18.504Z,14.10
2019-02-27T07:23:47.903Z,13.37
2019-02-27T07:26:15.845Z,14.07
2019-02-27T07:28:44.100Z,13.97
2019-02-27T07:31:12.481Z,14.20
2019-02-27T07:33:40.661Z,13.57
2019-02-27T07:36:08.689Z,16.63
2019-02-27T07:38:36.038Z,14.93
2019-02-27T07:41:03.394Z,16.27
2019-02-27T07:43:30.729Z,15.17
2019-02-27T07:45:58.079Z,14.13
2019-02-27T07:48:25.414Z,14.53
2019-02-27T07:50:52.944Z,15.20
2019-02-27T07:53:20.284Z,14.37
2019-02-27T07:55:48.421Z,15.40
2019-02-27T07:58:15.834Z,15.03
2019-02-27T08:00:43.146Z,14.67
2019-02-27T08:03:12.986Z,14.13
2019-02-27T08:05:39.878Z,14.47
2019-02-27T08:08:07.299Z,14.50
2019-02-27T08:10:36.982Z,14.23
2019-02-27T08:13:04.348Z,15.47
2019-02-27T08:15:31.728Z,14.47
2019-02-27T08:17:59.223Z,15.27
2019-02-27T08:20:26.720Z,14.40
2019-02-27T08:22:54.244Z,15.33
2019-02-27T08:25:21.889Z,15.13
2019-02-27T08:27:49.375Z,15.43
2019-02-27T08:30:18.426Z,14.67
2019-02-27T08:32:46.110Z,13.80
2019-02-27T08:35:16.762Z,14.27
2019-02-27T08:37:44.313Z,15.13
2019-02-27T08:40:11.875Z,13.27
2019-02-27T08:42:40.699Z,13.73
2019-02-27T08:45:08.973Z,13.47
2019-02-27T08:47:36.499Z,14.03
2019-02-27T08:50:05.984Z,13.60
2019-02-27T08:52:34.160Z,12.90
2019-02-27T08:55:05.419Z,13.67
2019-02-27T08:57:30.854Z,14.53
2019-02-27T08:59:58.553Z,13.33
2019-02-27T09:02:29.207Z,12.77
2019-02-27T09:04:55.497Z,13.47
2019-02-27T09:10:44.980Z,12.70
2019-02-27T09:16:09.616Z,12.33
2019-02-27T09:18:37.162Z,13.37
2019-02-27T09:21:04.734Z,12.17
2019-02-27T09:23:32.399Z,13.37
2019-02-27T09:26:02.698Z,12.60
2019-02-27T09:28:29.998Z,12.37
2019-02-27T09:31:03.326Z,13.00
2019-02-27T09:33:29.461Z,12.80
2019-02-27T09:35:57.372Z,13.87
2019-02-27T09:38:25.032Z,12.43
2019-02-27T09:40:52.611Z,13.50
2019-02-27T09:43:20.131Z,15.13
2019-02-27T09:45:47.751Z,14.63
2019-02-27T09:48:15.371Z,14.93
2019-02-27T09:50:47.649Z,14.07
2019-02-27T09:53:14.059Z,14.60
2019-02-27T09:55:41.660Z,14.33
2019-02-27T09:58:11.291Z,14.23
2019-02-27T10:00:44.613Z,13.60
2019-02-27T10:03:12.273Z,14.17
2019-02-27T10:05:40.843Z,13.40
2019-02-27T10:08:08.971Z,14.13
2019-02-27T10:10:36.562Z,14.33
2019-02-27T10:13:04.212Z,14.17
2019-02-27T10:15:31.833Z,14.17
2019-02-27T10:17:59.410Z,14.23
2019-02-27T10:20:26.991Z,14.40
2019-02-27T10:22:54.631Z,14.53
2019-02-27T10:25:22.331Z,15.63
2019-02-27T10:27:50.031Z,14.33
2019-02-27T10:30:17.850Z,14.73
2019-02-27T10:32:45.471Z,15.03
2019-02-27T10:35:14.011Z,14.67
2019-02-27T10:37:41.623Z,14.07
2019-02-27T10:40:11.468Z,14.77
2019-02-27T10:42:40.710Z,15.33
2019-02-27T10:45:10.216Z,14.73
2019-02-27T10:47:39.925Z,14.63
2019-02-27T10:50:07.991Z,14.00
2019-02-27T10:52:35.551Z,13.70
2019-02-27T10:55:03.355Z,14.43
2019-02-27T10:57:32.230Z,14.77
2019-02-27T11:00:03.539Z,14.37
2019-02-27T11:02:31.231Z,13.77
2019-02-27T11:04:58.771Z,14.00
2019-02-27T11:07:26.332Z,13.70
2019-02-27T11:09:53.919Z,12.80
2019-02-27T11:12:21.586Z,13.00
2019-02-27T11:14:49.243Z,13.20
2019-02-27T11:17:16.954Z,12.37
2019-02-27T11:19:44.812Z,13.43
2019-02-27T11:23:06.732Z,12.90
2019-02-27T11:25:56.518Z,12.13
2019-02-27T11:28:31.124Z,11.57
2019-02-27T11:31:38.751Z,12.57
2019-02-27T11:34:13.231Z,12.30
2019-02-27T11:36:40.840Z,12.77
2019-02-27T11:39:08.872Z,11.87
2019-02-27T11:41:36.351Z,10.83
2019-02-27T11:44:05.072Z,9.80
2019-02-27T11:46:35.154Z,11.80
2019-02-27T11:49:03.166Z,3.90
2019-02-27T11:51:31.174Z,2.20
2019-02-27T11:53:59.171Z,2.00
2019-02-27T11:56:26.691Z,1.77
2019-02-27T11:58:57.789Z,1.80
2019-02-27T12:01:25.531Z,1.87
2019-02-27T12:03:53.051Z,2.10
2019-02-27T12:06:20.651Z,2.27
2019-02-27T12:08:48.734Z,2.53
2019-02-27T12:11:16.231Z,2.20
2019-02-27T12:13:43.695Z,2.40
2019-02-27T12:16:11.471Z,2.27
2019-02-27T12:19:08.651Z,2.20
2019-02-27T12:21:34.851Z,2.47
2019-02-27T12:35:56.870Z,2.40
2019-02-27T12:38:56.042Z,3.00
2019-02-27T12:43:14.373Z,3.00
2019-02-27T12:55:01.773Z,2.30
2019-02-27T13:02:46.228Z,2.50
2019-02-27T13:12:42.029Z,2.37
2019-02-27T13:15:12.277Z,2.80
2019-02-27T13:18:43.962Z,2.40
2019-02-27T13:21:37.532Z,2.87
2019-02-27T13:24:22.252Z,2.87
2019-02-27T13:30:41.370Z,3.40
2019-02-27T13:36:51.577Z,3.40
2019-02-27T13:43:05.603Z,3.33
2019-02-27T14:14:53.338Z,3.90
2019-02-27T14:18:21.950Z,3.80
2019-02-27T14:21:56.129Z,3.87
2019-02-27T14:32:38.252Z,3.87
2019-02-27T14:36:01.703Z,3.90
2019-02-27T14:39:07.837Z,3.70
2019-02-27T15:02:33.798Z,3.30
2019-02-27T15:05:06.213Z,2.90
2019-02-27T15:07:30.505Z,2.87
2019-02-27T15:09:57.938Z,3.17
2019-02-27T15:12:25.325Z,3.20
2019-02-27T15:14:52.764Z,3.07
2019-02-27T15:17:20.450Z,3.30
2019-02-27T15:19:48.744Z,3.10
2019-02-27T15:22:20.227Z,3.43
2019-02-27T15:24:45.483Z,3.20
2019-02-27T15:27:12.866Z,3.37
2019-02-27T15:29:40.350Z,3.30
2019-02-27T15:32:07.808Z,3.10
2019-02-27T15:34:35.238Z,3.30
2019-02-27T15:37:04.131Z,3.30
2019-02-27T15:39:31.983Z,3.23
2019-02-27T15:41:59.374Z,3.23
2019-02-27T15:44:26.823Z,3.30
2019-02-27T15:46:56.600Z,3.83
2019-02-27T15:49:23.553Z,4.57
2019-02-27T15:51:51.029Z,3.43
2019-02-27T15:54:23.981Z,3.53
2019-02-27T15:56:47.773Z,3.70
2019-02-27T15:59:15.713Z,4.00
2019-02-27T16:01:43.118Z,4.30
2019-02-27T16:04:10.610Z,3.97
2019-02-27T16:06:39.821Z,4.00
2019-02-27T16:09:08.883Z,3.83
2019-02-27T16:11:36.298Z,3.93
2019-02-27T16:14:09.259Z,4.03
2019-02-27T16:16:33.283Z,4.20
2019-02-27T16:19:00.855Z,4.00
2019-02-27T16:21:28.375Z,3.90
2019-02-27T16:23:56.232Z,4.13
2019-02-27T16:26:27.011Z,4.00
2019-02-27T16:28:53.634Z,4.10
2019-02-27T16:31:21.178Z,3.80
2019-02-27T16:33:48.913Z,4.30
2019-02-27T16:36:16.544Z,4.07
2019-02-27T16:38:44.059Z,4.40
2019-02-27T16:41:11.933Z,5.40
2019-02-27T16:43:39.499Z,5.03
2019-02-27T16:46:08.529Z,5.33
2019-02-27T16:48:36.529Z,4.80
2019-02-27T16:51:04.332Z,4.57
2019-02-27T16:53:31.923Z,4.97
2019-02-27T16:55:59.768Z,5.63
2019-02-27T16:58:32.515Z,5.57
2019-02-27T17:00:57.104Z,5.40
2019-02-27T17:03:24.738Z,5.23
2019-02-27T17:05:52.438Z,5.23
2019-02-27T17:08:20.203Z,4.80
2019-02-27T17:10:51.666Z,4.90
2019-02-27T17:13:17.710Z,5.60
2019-02-27T17:15:45.435Z,8.83
2019-02-27T17:18:13.275Z,11.03
2019-02-27T17:20:45.878Z,12.00
2019-02-27T17:23:11.078Z,38.83
2019-02-27T17:25:38.784Z,43.60
2019-02-27T17:28:06.335Z,21.03
2019-02-27T17:30:37.765Z,11.00
2019-02-27T17:33:04.098Z,12.30
2019-02-27T17:35:32.979Z,10.00
2019-02-27T17:38:00.580Z,9.00
2019-02-27T17:40:29.209Z,7.77
2019-02-27T17:42:57.418Z,15.10
2019-02-27T17:45:28.269Z,8.23
2019-02-27T17:47:56.091Z,10.27
2019-02-27T17:50:31.694Z,17.00
2019-02-27T17:52:58.600Z,18.40
2019-02-27T17:55:26.569Z,14.13
2019-02-27T17:57:58.026Z,11.13
2019-02-27T18:00:34.479Z,11.77
2019-02-27T18:03:05.024Z,24.23
2019-02-27T18:05:35.169Z,18.40
2019-02-27T18:08:04.158Z,7.97
2019-02-27T18:10:37.076Z,25.20
2019-02-27T18:13:02.119Z,13.07
2019-02-27T18:15:30.139Z,11.43
2019-02-27T18:17:58.169Z,8.73
2019-02-27T18:20:26.029Z,8.77
2019-02-27T18:22:54.001Z,9.47
2019-02-27T18:25:21.996Z,10.37
2019-02-27T18:27:49.846Z,8.77
2019-02-27T18:30:18.839Z,10.33
2019-02-27T18:33:03.547Z,14.53
2019-02-27T18:36:05.662Z,18.03
2019-02-27T18:38:32.932Z,16.93
2019-02-27T18:41:01.048Z,15.47
2019-02-27T18:43:30.105Z,8.63
2019-02-27T18:45:58.729Z,9.63
2019-02-27T18:48:26.658Z,10.23
2019-02-27T18:50:55.918Z,10.10
2019-02-27T18:53:24.309Z,10.17
2019-02-27T18:55:52.238Z,9.80
2019-02-27T18:58:20.893Z,8.20
2019-02-27T19:00:49.419Z,8.30
2019-02-27T19:03:17.258Z,8.00
2019-02-27T19:05:45.134Z,8.37
2019-02-27T19:08:13.061Z,9.17
2019-02-27T19:10:42.477Z,8.73
2019-02-27T19:13:10.775Z,8.23
2019-02-27T19:15:39.080Z,8.27
2019-02-27T19:18:07.389Z,8.50
2019-02-27T19:20:35.600Z,7.77
2019-02-27T19:23:03.649Z,8.60
2019-02-27T19:25:34.620Z,9.43
2019-02-27T19:28:04.734Z,8.57
2019-02-27T19:30:34.677Z,8.57
2019-02-27T19:33:03.911Z,7.60
2019-02-27T19:35:32.840Z,8.60
2019-02-27T19:38:01.142Z,7.93
2019-02-27T19:40:30.563Z,8.57
2019-02-27T19:43:02.988Z,8.80
2019-02-27T19:45:30.895Z,8.13
2019-02-27T19:48:00.005Z,7.83
2019-02-27T19:50:28.019Z,8.20
2019-02-27T19:52:56.014Z,8.37
2019-02-27T19:55:27.626Z,8.83
2019-02-27T19:57:55.689Z,8.80
2019-02-27T20:00:25.063Z,8.20
2019-02-27T20:02:56.996Z,8.67
2019-02-27T20:05:24.043Z,8.00
2019-02-27T20:07:52.241Z,9.03
2019-02-27T20:10:21.785Z,8.33
2019-02-27T20:12:52.979Z,11.20
2019-02-27T20:15:19.930Z,8.80
2019-02-27T20:17:48.053Z,9.70
2019-02-27T20:20:17.522Z,9.70
2019-02-27T20:22:46.582Z,9.57
2019-02-27T20:25:14.549Z,10.03
2019-02-27T20:27:43.075Z,9.60
2019-02-27T20:30:14.350Z,10.03
2019-02-27T20:32:43.109Z,8.97
2019-02-27T20:35:11.428Z,10.30
2019-02-27T20:37:40.263Z,10.00
2019-02-27T20:40:09.372Z,11.17
2019-02-27T20:42:37.358Z,10.40
2019-02-27T20:45:08.635Z,9.57
2019-02-27T20:47:37.274Z,9.70
2019-02-27T20:50:09.624Z,9.00
2019-02-27T20:52:42.604Z,9.23
2019-02-27T20:55:10.904Z,10.03
2019-02-27T20:57:42.265Z,9.23
2019-02-27T21:00:12.718Z,8.90
2019-02-27T21:02:40.669Z,9.50
2019-02-27T21:05:10.563Z,9.50
2019-02-27T21:07:38.493Z,9.17
2019-02-27T21:10:10.357Z,9.60
2019-02-27T21:12:40.829Z,9.30
2019-02-27T21:15:08.738Z,10.17
2019-02-27T21:17:38.928Z,10.00
2019-02-27T21:20:11.917Z,9.37
2019-02-27T21:22:40.116Z,10.20
2019-02-27T21:25:08.639Z,9.17
2019-02-27T21:27:36.394Z,10.83
2019-02-27T21:30:18.055Z,9.73
2019-02-27T21:32:41.203Z,9.60
2019-02-27T21:35:11.849Z,9.27
2019-02-27T21:37:44.545Z,9.83
2019-02-27T21:40:10.758Z,10.13
2019-02-27T21:42:38.369Z,9.33
2019-02-27T21:45:08.268Z,9.83
2019-02-27T21:47:38.340Z,9.53
2019-02-27T21:50:07.397Z,10.00
2019-02-27T21:52:35.098Z,10.63
2019-02-27T21:55:02.669Z,9.33
2019-02-27T21:57:30.184Z,9.50
2019-02-27T22:00:25.615Z,10.07
2019-02-27T22:03:03.901Z,9.67
2019-02-27T22:10:28.197Z,10.63
2019-02-27T22:12:53.065Z,10.20
2019-02-27T22:15:23.215Z,10.53
2019-02-27T22:17:50.738Z,11.00
2019-02-27T22:20:18.349Z,10.73
2019-02-27T22:22:45.728Z,10.53
2019-02-27T22:25:13.298Z,10.47
2019-02-27T22:27:43.278Z,11.10
2019-02-27T22:30:12.519Z,10.67
2019-02-27T22:32:39.908Z,11.37
2019-02-27T22:35:07.579Z,11.13
2019-02-27T22:37:35.009Z,11.00
2019-02-27T22:40:06.583Z,10.77
2019-02-27T22:42:31.963Z,10.90
2019-02-27T22:45:00.585Z,11.67
2019-02-27T22:47:28.824Z,11.20
2019-02-27T22:49:56.348Z,11.70
2019-02-27T22:52:23.848Z,12.37
2019-02-27T22:54:51.644Z,13.37
2019-02-27T22:57:19.050Z,12.60
2019-02-27T22:59:46.604Z,12.47
2019-02-27T23:02:14.174Z,12.73
2019-02-27T23:04:41.752Z,12.43
2019-02-27T23:07:09.483Z,12.67
2019-02-27T23:09:37.054Z,13.07
2019-02-27T23:12:04.684Z,12.33
2019-02-27T23:14:33.134Z,13.47
2019-02-27T23:17:01.295Z,10.77
2019-02-27T23:19:28.928Z,12.93
2019-02-27T23:21:57.575Z,13.03
2019-02-27T23:24:25.772Z,15.23
2019-02-27T23:26:54.922Z,14.97
2019-02-27T23:29:22.778Z,14.50
2019-02-27T23:31:50.313Z,13.57
2019-02-27T23:34:17.768Z,13.63
2019-02-27T23:36:45.281Z,15.03
2019-02-27T23:39:12.728Z,14.70
2019-02-27T23:41:40.283Z,14.30
2019-02-27T23:44:07.712Z,13.77
2019-02-27T23:46:35.193Z,14.00
2019-02-27T23:49:02.608Z,15.17
2019-02-27T23:51:30.143Z,14.30
2019-02-27T23:53:58.636Z,14.30
2019-02-27T23:56:26.943Z,14.67
2019-02-27T23:58:54.481Z,15.43
